KCLL/CLL METAR and TAF weather

Enter ICAO airport designator
Station Type Date Time Source
KCLL METAR 2019/10/18 06:53 UTC NOAA

KCLL 180653Z AUTO 11003KT 10SM CLR 13/11 A2991 RMK AO2 SLP124 T01280106


Station Type Date Time Source
KCLL Decoded METAR 2019/10/18 06:53 UTC NOAA

COLLEGE STN EASTERWOOD FIELD, TX, United States (KCLL) 30-35N 096-22W 96M
Oct 18, 2019 - 02:53 AM EDT / 2019.10.18 0653 UTC
Wind: from the ESE (110 degrees) at 3 MPH (3 KT):0
Visibility: 10 mile(s):0
Sky conditions: clear
Temperature: 55.0 F (12.8 C)
Dew Point: 51.1 F (10.6 C)
Relative Humidity: 86%
Pressure (altimeter): 29.91 in. Hg (1012 hPa)
ob: KCLL 180653Z AUTO 11003KT 10SM CLR 13/11 A2991 RMK AO2 SLP124 T01280106
cycle: 7

Station Type Date Time Source
KCLL TAF 2019/10/18 06:22 UTC NOAA

TAF KCLL 180520Z 1806/1906 VRB03KT P6SM SKC
FM182100 15005KT P6SM SKC

Example: see airport list